»·PEaware :: N49872 KLGB-KSEE

N49872 :: KLGB-KSEE

FLIGHT INFORMATION

Flight Status: Arrived
Operator: Privately registered:
United States
More flights under this callsign
Pilot: Jeff K. (12978)
Aircraft: BEECH AIRCRAFT BARON
(BE58)
More flights by this aircraft type
Origin: KLGB Long Beach
United States
Destination: KSEE Gillespie
United States
More flights between these airports :: More routes between these airports
Route: +
File this flight plan on PilotEdge
Remarks:
Altitude:
(Current/Filed)
0ft
Speed:
(Current/Filed)
0kts
Departed: 02-Aug-17 10:03 AM
Arrived: 02-Aug-17 10:43 AM
Distance/Time
Traveled:
84nm/0:39
Distance/Time
To Go:
Arrived

Flight Plot

Page will automatically refresh every two minutes.

Flight plan parsing failed; only flown route is shown


Map Options




Map Legend


Flown Route
Filed Route
Departure Airport
Arrival Airport
Navaid (VOR, NDB)
Fix

Horizontal Profiles

Position Reports

Time Latitude Longitude Heading Altitude Ground
Speed
02-Aug-17 09:53 33.821345 -118.158639 73 47ft 0kts
02-Aug-17 09:54 33.821345 -118.158639 73 47ft 0kts
02-Aug-17 09:55 33.821345 -118.158639 73 47ft 0kts
02-Aug-17 09:56 33.821345 -118.158639 73 47ft 0kts
02-Aug-17 09:57 33.821002 -118.157767 115 47ft 8kts
02-Aug-17 09:58 33.821648 -118.156761 90 47ft 2kts
02-Aug-17 09:59 33.821646 -118.154709 89 43ft 16kts
02-Aug-17 10:00 33.821616 -118.148793 91 38ft 9kts
02-Aug-17 10:01 33.821923 -118.145091 280 34ft 0kts
02-Aug-17 10:02 33.821923 -118.145091 280 34ft 0kts
02-Aug-17 10:03 33.821772 -118.145187 155 34ft 4kts
02-Aug-17 10:04 33.821960 -118.144003 56 33ft 0kts
02-Aug-17 10:05 33.821960 -118.144003 56 33ft 0kts
02-Aug-17 10:06 33.822709 -118.146928 270 37ft 56kts
02-Aug-17 10:07 33.823520 -118.183569 272 1166ft 125kts
02-Aug-17 10:08 33.802211 -118.212136 189 2601ft 139kts
02-Aug-17 10:09 33.761050 -118.221132 190 3254ft 156kts
02-Aug-17 10:10 33.720679 -118.230618 191 4165ft 145kts
02-Aug-17 10:11 33.680954 -118.225839 129 4577ft 161kts
02-Aug-17 10:12 33.657738 -118.175838 108 4533ft 175kts
02-Aug-17 10:13 33.641754 -118.119969 109 4493ft 177kts
02-Aug-17 10:14 33.625754 -118.064089 108 4521ft 176kts
02-Aug-17 10:15 33.608343 -118.008620 120 4506ft 179kts
02-Aug-17 10:16 33.579940 -117.959279 126 4503ft 180kts
02-Aug-17 10:17 33.551053 -117.910539 125 4532ft 178kts
02-Aug-17 10:18 33.523364 -117.861956 124 4481ft 174kts
02-Aug-17 10:19 33.496284 -117.814202 124 4490ft 173kts
02-Aug-17 10:20 33.468836 -117.766707 124 4492ft 175kts
02-Aug-17 10:21 33.441180 -117.718708 124 4486ft 174kts
02-Aug-17 10:22 33.413874 -117.671124 124 4480ft 172kts
02-Aug-17 10:23 33.383075 -117.627224 132 4522ft 173kts
02-Aug-17 10:24 33.350451 -117.584939 134 4524ft 172kts
02-Aug-17 10:25 33.312679 -117.548941 142 4533ft 174kts
02-Aug-17 10:26 33.273863 -117.513515 141 4507ft 174kts
02-Aug-17 10:27 33.234768 -117.479310 145 4494ft 174kts
02-Aug-17 10:28 33.194218 -117.446728 147 4471ft 175kts
02-Aug-17 10:29 33.157200 -117.410802 123 4497ft 174kts
02-Aug-17 10:30 33.139334 -117.357915 105 4566ft 171kts
02-Aug-17 10:31 33.127804 -117.303206 104 4509ft 173kts
02-Aug-17 10:32 33.116063 -117.247236 102 4503ft 172kts
02-Aug-17 10:33 33.102879 -117.192173 107 4538ft 174kts
02-Aug-17 10:34 33.085180 -117.138664 114 4566ft 175kts
02-Aug-17 10:35 33.061360 -117.088717 128 4379ft 164kts
02-Aug-17 10:36 33.032130 -117.047354 130 3862ft 160kts
02-Aug-17 10:37 33.002856 -117.009409 138 3567ft 149kts
02-Aug-17 10:38 32.972980 -116.977706 132 3331ft 148kts
02-Aug-17 10:39 32.939807 -116.947503 161 3246ft 155kts
02-Aug-17 10:40 32.898723 -116.946024 184 2998ft 135kts
02-Aug-17 10:41 32.878532 -116.926796 56 2891ft 123kts
02-Aug-17 10:42 32.886018 -116.943269 204 2624ft 128kts
02-Aug-17 10:43 32.849210 -116.933890 169 1872ft 143kts
02-Aug-17 10:44 32.819739 -116.937094 290 1158ft 103kts
02-Aug-17 10:45 32.827693 -116.971478 282 369ft 48kts
02-Aug-17 10:46 32.828893 -116.975506 25 361ft 0kts
02-Aug-17 10:47 32.828519 -116.972584 102 366ft 17kts
02-Aug-17 10:48 32.828301 -116.971366 101 369ft 12kts

Navigation Log

Ident Type
Flight plan parsing failed, navigation log unavailable